createdAt,value
2018-04-14T00:01:41.855Z,77.60
2018-04-14T00:04:16.383Z,77.30
2018-04-14T00:06:50.701Z,77.20
2018-04-14T00:09:25.117Z,77.10
2018-04-14T00:11:59.644Z,77.90
2018-04-14T00:14:33.972Z,77.80
2018-04-14T00:17:08.376Z,77.70
2018-04-14T00:19:42.981Z,76.70
2018-04-14T00:22:18.148Z,77.00
2018-04-14T00:24:52.665Z,76.90
2018-04-14T00:27:27.099Z,77.00
2018-04-14T00:30:01.717Z,77.90
2018-04-14T00:32:36.971Z,78.10
2018-04-14T00:35:11.974Z,78.10
2018-04-14T00:37:46.515Z,78.30
2018-04-14T00:40:21.039Z,78.40
2018-04-14T00:42:56.236Z,78.00
2018-04-14T00:45:30.680Z,78.00
2018-04-14T00:48:05.211Z,77.90
2018-04-14T00:50:39.627Z,78.80
2018-04-14T00:56:18.349Z,77.90
2018-04-14T00:58:53.324Z,78.10
2018-04-14T01:01:27.616Z,78.10
2018-04-14T01:04:02.053Z,78.60
2018-04-14T01:06:36.356Z,78.40
2018-04-14T01:09:10.692Z,78.20
2018-04-14T01:11:46.666Z,78.00
2018-04-14T01:14:21.071Z,78.00
2018-04-14T01:16:55.568Z,77.80
2018-04-14T01:19:30.032Z,78.10
2018-04-14T01:22:04.515Z,78.40
2018-04-14T01:24:39.049Z,78.70
2018-04-14T01:27:13.361Z,78.40
2018-04-14T01:29:47.799Z,77.40
2018-04-14T01:32:22.125Z,77.10
2018-04-14T01:34:56.500Z,77.40
2018-04-14T01:37:31.069Z,75.70
2018-04-14T01:40:05.778Z,72.60
2018-04-14T01:42:40.200Z,72.60
2018-04-14T01:45:14.532Z,71.60
2018-04-14T01:47:49.637Z,71.90
2018-04-14T01:50:24.025Z,72.30
2018-04-14T01:53:00.148Z,72.80
2018-04-14T01:55:34.667Z,72.80
2018-04-14T01:58:09.097Z,73.70
2018-04-14T02:00:43.620Z,74.00
2018-04-14T02:03:18.812Z,71.70
2018-04-14T02:05:53.192Z,71.60
2018-04-14T02:08:27.802Z,71.20
2018-04-14T02:11:02.284Z,70.50
2018-04-14T02:13:36.742Z,70.60
2018-04-14T02:16:11.241Z,69.90
2018-04-14T02:18:45.497Z,69.90
2018-04-14T02:21:19.820Z,71.40
2018-04-14T02:23:54.329Z,73.80
2018-04-14T02:26:29.021Z,70.70
2018-04-14T02:29:03.780Z,71.60
2018-04-14T02:31:39.207Z,72.50
2018-04-14T02:34:13.518Z,72.40
2018-04-14T02:36:49.481Z,71.40
2018-04-14T02:39:23.893Z,71.40
2018-04-14T02:41:58.424Z,70.60
2018-04-14T02:44:32.839Z,71.80
2018-04-14T02:47:07.181Z,71.30
2018-04-14T02:49:41.685Z,70.90
2018-04-14T02:52:16.988Z,72.40
2018-04-14T02:54:51.496Z,72.30
2018-04-14T02:57:25.964Z,72.00
2018-04-14T03:00:00.413Z,71.50
2018-04-14T03:02:34.720Z,71.90
2018-04-14T03:05:09.953Z,72.00
2018-04-14T03:07:44.269Z,72.10
2018-04-14T03:10:18.854Z,71.30
2018-04-14T03:12:53.316Z,71.30
2018-04-14T03:15:27.657Z,73.30
2018-04-14T03:18:02.081Z,73.70
2018-04-14T03:20:36.390Z,73.30
2018-04-14T03:23:10.852Z,73.50
2018-04-14T03:25:45.961Z,73.10
2018-04-14T03:28:20.272Z,73.10
2018-04-14T03:30:54.891Z,72.40
2018-04-14T03:33:29.260Z,73.60
2018-04-14T03:36:03.744Z,74.00
2018-04-14T03:38:38.260Z,73.00
2018-04-14T03:41:12.573Z,73.20
2018-04-14T03:43:47.204Z,73.40
2018-04-14T03:46:22.543Z,73.30
2018-04-14T03:48:57.244Z,73.20
2018-04-14T03:51:32.402Z,73.90
2018-04-14T03:54:07.208Z,73.80
2018-04-14T03:56:41.837Z,73.70
2018-04-14T03:59:18.713Z,73.70
2018-04-14T04:01:53.281Z,73.70
2018-04-14T04:04:28.512Z,73.60
2018-04-14T04:07:03.032Z,74.10
2018-04-14T04:09:37.329Z,73.60
2018-04-14T04:12:11.756Z,68.80
2018-04-14T04:14:46.291Z,67.70
2018-04-14T04:17:20.716Z,66.90
2018-04-14T04:20:07.680Z,66.50
2018-04-14T04:22:54.557Z,66.20
2018-04-14T04:25:39.636Z,66.20
2018-04-14T04:28:14.574Z,65.00
2018-04-14T04:30:48.628Z,64.90
2018-04-14T04:33:22.864Z,65.80
2018-04-14T04:35:57.084Z,65.00
2018-04-14T04:38:32.109Z,65.10
2018-04-14T04:41:06.323Z,65.00
2018-04-14T04:43:40.584Z,65.20
2018-04-14T04:46:14.853Z,64.70
2018-04-14T04:48:48.986Z,65.40
2018-04-14T04:51:23.216Z,64.90
2018-04-14T04:53:58.207Z,64.50
2018-04-14T04:56:32.569Z,64.40
2018-04-14T04:59:06.792Z,63.90
2018-04-14T05:01:40.992Z,64.70
2018-04-14T05:04:15.417Z,64.80
2018-04-14T05:06:49.839Z,64.60
2018-04-14T05:09:24.048Z,64.80
2018-04-14T05:11:58.285Z,64.90
2018-04-14T05:14:33.236Z,66.10
2018-04-14T05:17:07.312Z,66.00
2018-04-14T05:19:41.632Z,64.60
2018-04-14T05:22:15.948Z,64.10
2018-04-14T05:24:50.851Z,66.40
2018-04-14T05:27:25.232Z,66.30
2018-04-14T05:29:59.500Z,65.10
2018-04-14T05:32:33.625Z,65.40
2018-04-14T05:35:09.414Z,66.00
2018-04-14T05:37:43.600Z,65.60
2018-04-14T05:40:17.822Z,64.80
2018-04-14T05:42:52.038Z,65.80
2018-04-14T05:45:26.245Z,64.20
2018-04-14T05:48:00.464Z,64.00
2018-04-14T05:50:35.174Z,63.50
2018-04-14T05:53:09.353Z,63.70
2018-04-14T05:55:43.608Z,64.00
2018-04-14T05:58:17.884Z,64.80
2018-04-14T06:00:52.140Z,63.50
2018-04-14T06:03:27.179Z,63.20
2018-04-14T06:06:01.421Z,63.20
2018-04-14T06:08:35.638Z,63.30
2018-04-14T06:11:09.829Z,64.00
2018-04-14T06:13:44.052Z,62.30
2018-04-14T06:16:18.264Z,62.70
2018-04-14T06:18:52.461Z,63.10
2018-04-14T06:21:27.456Z,62.70
2018-04-14T06:24:01.584Z,62.70
2018-04-14T06:26:35.772Z,62.40
2018-04-14T06:29:10.051Z,62.90
2018-04-14T06:31:44.084Z,61.40
2018-04-14T06:34:18.352Z,62.30
2018-04-14T06:36:52.565Z,62.30
2018-04-14T06:39:26.812Z,62.20
2018-04-14T06:42:01.438Z,61.70
2018-04-14T06:44:35.484Z,61.90
2018-04-14T06:47:10.693Z,62.80
2018-04-14T06:49:44.832Z,62.80
2018-04-14T06:52:19.876Z,59.70
2018-04-14T06:54:53.968Z,59.70
2018-04-14T06:57:28.252Z,58.20
2018-04-14T07:00:02.339Z,56.40
2018-04-14T07:02:37.376Z,59.50
2018-04-14T07:05:11.753Z,59.50
2018-04-14T07:07:45.960Z,57.40
2018-04-14T07:10:20.480Z,59.60
2018-04-14T07:12:54.708Z,58.30
2018-04-14T07:15:29.035Z,56.60
2018-04-14T07:18:04.021Z,56.80
2018-04-14T07:20:38.302Z,56.90
2018-04-14T07:23:12.640Z,57.80
2018-04-14T07:25:48.451Z,55.70
2018-04-14T07:28:22.661Z,55.70
2018-04-14T07:30:57.986Z,54.00
2018-04-14T07:33:33.017Z,57.10
2018-04-14T07:36:07.169Z,56.70
2018-04-14T07:38:41.564Z,54.80
2018-04-14T07:41:15.896Z,58.70
2018-04-14T07:43:50.212Z,57.70
2018-04-14T07:46:24.420Z,56.40
2018-04-14T07:48:58.660Z,57.70
2018-04-14T07:51:32.950Z,56.40
2018-04-14T07:54:07.920Z,55.30
2018-04-14T07:56:42.109Z,55.20
2018-04-14T07:59:16.424Z,56.70
2018-04-14T08:01:50.775Z,55.90
2018-04-14T08:04:25.056Z,56.50
2018-04-14T08:06:59.284Z,55.90
2018-04-14T08:09:33.508Z,57.00
2018-04-14T08:12:07.828Z,57.80
2018-04-14T08:14:42.945Z,55.50
2018-04-14T08:17:17.275Z,57.40
2018-04-14T08:19:53.336Z,57.60
2018-04-14T08:22:27.565Z,57.70
2018-04-14T08:25:01.850Z,55.30
2018-04-14T08:27:36.066Z,55.90
2018-04-14T08:30:10.406Z,56.90
2018-04-14T08:32:44.682Z,54.40
2018-04-14T08:35:18.835Z,54.70
2018-04-14T08:37:53.065Z,52.60
2018-04-14T08:40:27.260Z,53.90
2018-04-14T08:43:01.691Z,52.10
2018-04-14T08:45:36.815Z,54.10
2018-04-14T08:48:11.126Z,54.10
2018-04-14T08:50:45.417Z,54.40
2018-04-14T08:53:19.564Z,54.50
2018-04-14T08:55:53.992Z,53.60
2018-04-14T08:58:28.213Z,52.80
2018-04-14T09:01:02.510Z,50.90
2018-04-14T09:03:37.664Z,54.00
2018-04-14T09:06:11.952Z,54.00
2018-04-14T09:08:46.308Z,53.30
2018-04-14T09:11:20.660Z,51.70
2018-04-14T09:13:54.831Z,52.10
2018-04-14T09:16:29.124Z,51.20
2018-04-14T09:19:04.160Z,50.20
2018-04-14T09:21:38.604Z,50.40
2018-04-14T09:24:13.128Z,52.00
2018-04-14T09:26:47.420Z,52.40
2018-04-14T09:29:22.078Z,52.90
2018-04-14T09:31:56.374Z,52.80
2018-04-14T09:34:30.701Z,51.70
2018-04-14T09:37:05.132Z,53.70
2018-04-14T09:39:40.276Z,53.30
2018-04-14T09:42:14.650Z,53.10
2018-04-14T09:44:48.937Z,55.40
2018-04-14T09:47:24.352Z,55.60
2018-04-14T09:49:58.781Z,55.60
2018-04-14T09:52:33.908Z,53.00
2018-04-14T09:55:08.304Z,52.90
2018-04-14T09:57:42.734Z,54.00
2018-04-14T10:00:22.791Z,53.90
2018-04-14T10:03:00.154Z,53.10
2018-04-14T10:05:34.404Z,53.50
2018-04-14T10:08:08.675Z,55.10
2018-04-14T10:10:43.168Z,53.10
2018-04-14T10:13:17.468Z,51.70
2018-04-14T10:15:53.363Z,53.90
2018-04-14T10:18:27.847Z,53.90
2018-04-14T10:21:02.480Z,53.40
2018-04-14T10:23:36.748Z,55.00
2018-04-14T10:26:11.013Z,55.30
2018-04-14T10:28:45.536Z,56.00
2018-04-14T10:31:19.852Z,56.10
2018-04-14T10:33:54.379Z,57.00
2018-04-14T10:36:29.412Z,54.40
2018-04-14T10:39:03.817Z,54.40
2018-04-14T10:41:38.234Z,54.30
2018-04-14T10:44:13.373Z,55.50
2018-04-14T10:46:47.804Z,55.50
2018-04-14T10:49:22.876Z,57.30
2018-04-14T10:51:57.245Z,57.30
2018-04-14T10:54:31.559Z,57.40
2018-04-14T10:57:05.861Z,56.20
2018-04-14T10:59:40.417Z,57.40
2018-04-14T11:02:14.832Z,56.10
2018-04-14T11:04:49.147Z,56.50
2018-04-14T11:07:23.584Z,54.60
2018-04-14T11:09:57.884Z,54.70
2018-04-14T11:12:32.316Z,53.80
2018-04-14T11:15:06.729Z,54.50
2018-04-14T11:17:41.064Z,54.20
2018-04-14T11:20:15.488Z,54.80
2018-04-14T11:22:49.907Z,55.20
2018-04-14T11:25:24.325Z,53.50
2018-04-14T11:27:58.753Z,54.20
2018-04-14T11:30:33.078Z,52.20
2018-04-14T11:33:07.488Z,51.60
2018-04-14T11:35:42.528Z,50.90
2018-04-14T11:38:17.761Z,50.80
2018-04-14T11:40:52.185Z,50.00
2018-04-14T11:43:26.529Z,51.20
2018-04-14T11:46:00.908Z,50.90
2018-04-14T11:48:35.343Z,51.00
2018-04-14T11:51:09.776Z,48.90
2018-04-14T11:53:44.172Z,51.10
2018-04-14T11:56:18.551Z,50.10
2018-04-14T11:58:52.880Z,50.70
2018-04-14T12:01:28.185Z,49.10
2018-04-14T12:04:03.386Z,49.80
2018-04-14T12:06:37.784Z,49.80
2018-04-14T12:09:12.349Z,49.10
2018-04-14T12:11:46.769Z,49.90
2018-04-14T12:14:21.188Z,48.30
2018-04-14T12:16:55.609Z,49.00
2018-04-14T12:19:29.896Z,46.70
2018-04-14T12:22:04.433Z,47.40
2018-04-14T12:24:39.667Z,50.20
2018-04-14T12:27:14.208Z,50.20
2018-04-14T12:29:48.505Z,50.30
2018-04-14T12:32:22.952Z,47.60
2018-04-14T12:34:57.350Z,48.50
2018-04-14T12:37:31.776Z,46.50
2018-04-14T12:40:06.089Z,50.80
2018-04-14T12:42:40.388Z,49.20
2018-04-14T12:45:14.657Z,50.80
2018-04-14T12:47:49.160Z,50.60
2018-04-14T12:50:23.796Z,53.10
2018-04-14T12:52:58.936Z,51.60
2018-04-14T12:55:33.357Z,51.60
2018-04-14T12:58:07.624Z,51.00
2018-04-14T13:00:41.973Z,49.60
2018-04-14T13:03:16.304Z,54.20
2018-04-14T13:05:50.812Z,51.90
2018-04-14T13:08:25.971Z,51.50
2018-04-14T13:11:00.596Z,51.60
2018-04-14T13:13:34.852Z,49.30
2018-04-14T13:16:09.240Z,50.60
2018-04-14T13:18:43.645Z,50.80
2018-04-14T13:21:18.788Z,50.70
2018-04-14T13:23:53.216Z,50.70
2018-04-14T13:26:27.693Z,52.50
2018-04-14T13:29:02.080Z,52.60
2018-04-14T13:31:36.484Z,52.20
2018-04-14T13:34:10.888Z,50.80
2018-04-14T13:36:45.320Z,54.00
2018-04-14T13:39:19.840Z,53.40
2018-04-14T13:41:54.144Z,48.70
2018-04-14T13:44:28.476Z,50.20
2018-04-14T13:47:02.997Z,53.50
2018-04-14T13:49:37.260Z,52.90
2018-04-14T13:52:11.572Z,53.60
2018-04-14T13:54:45.844Z,49.00
2018-04-14T13:57:20.263Z,52.60
2018-04-14T13:59:54.777Z,54.20
2018-04-14T14:02:29.208Z,51.00
2018-04-14T14:05:03.484Z,51.40
2018-04-14T14:07:37.936Z,53.40
2018-04-14T14:10:12.476Z,53.40
2018-04-14T14:12:46.908Z,53.30
2018-04-14T14:15:21.368Z,51.70
2018-04-14T14:17:55.925Z,50.50
2018-04-14T14:20:30.364Z,54.80
2018-04-14T14:23:04.721Z,55.30
2018-04-14T14:25:39.232Z,52.40
2018-04-14T14:28:14.433Z,52.50
2018-04-14T14:30:49.587Z,52.80
2018-04-14T14:33:24.095Z,53.10
2018-04-14T14:35:59.312Z,52.60
2018-04-14T14:38:33.868Z,52.50
2018-04-14T14:41:08.208Z,51.50
2018-04-14T14:43:42.588Z,51.00
2018-04-14T14:46:16.915Z,55.20
2018-04-14T14:48:51.437Z,52.20
2018-04-14T14:51:25.861Z,52.30
2018-04-14T14:54:00.392Z,50.20
2018-04-14T14:56:34.888Z,52.50
2018-04-14T14:59:09.379Z,51.50
2018-04-14T15:01:44.392Z,50.60
2018-04-14T15:04:18.868Z,50.70
2018-04-14T15:06:53.232Z,53.00
2018-04-14T15:09:27.715Z,50.60
2018-04-14T15:12:02.134Z,50.00
2018-04-14T15:14:37.170Z,52.30
2018-04-14T15:17:11.716Z,52.40
2018-04-14T15:19:46.221Z,50.50
2018-04-14T15:22:20.644Z,51.60
2018-04-14T15:24:55.096Z,51.90
2018-04-14T15:27:29.401Z,51.50
2018-04-14T15:30:04.517Z,53.60
2018-04-14T15:32:39.076Z,53.70
2018-04-14T15:35:13.569Z,54.00
2018-04-14T15:37:47.852Z,51.30
2018-04-14T15:40:22.192Z,50.50
2018-04-14T15:42:56.740Z,48.80
2018-04-14T15:45:31.861Z,51.00
2018-04-14T15:48:07.202Z,50.30
2018-04-14T15:50:41.952Z,50.30
2018-04-14T15:53:16.352Z,53.40
2018-04-14T15:55:51.601Z,49.60
2018-04-14T15:58:26.132Z,50.90
2018-04-14T16:01:00.448Z,52.60
2018-04-14T16:03:34.764Z,50.80
2018-04-14T16:06:09.197Z,51.60
2018-04-14T16:08:43.712Z,51.10
2018-04-14T16:11:18.002Z,51.10
2018-04-14T16:13:53.253Z,50.30
2018-04-14T16:16:27.707Z,49.70
2018-04-14T16:19:02.265Z,50.50
2018-04-14T16:21:36.745Z,51.80
2018-04-14T16:24:11.270Z,53.90
2018-04-14T16:26:45.577Z,50.70
2018-04-14T16:29:20.204Z,51.00
2018-04-14T16:31:54.712Z,51.90
2018-04-14T16:34:29.273Z,50.70
2018-04-14T16:37:03.692Z,52.20
2018-04-14T16:39:37.970Z,50.00
2018-04-14T16:42:12.327Z,49.00
2018-04-14T16:44:46.603Z,50.50
2018-04-14T16:47:20.948Z,50.70
2018-04-14T16:49:55.742Z,51.00
2018-04-14T16:52:30.218Z,52.10
2018-04-14T16:55:04.757Z,55.20
2018-04-14T16:57:39.053Z,51.70
2018-04-14T17:00:13.444Z,53.60
2018-04-14T17:02:47.784Z,51.80
2018-04-14T17:05:22.872Z,53.10
2018-04-14T17:07:57.340Z,53.10
2018-04-14T17:10:31.768Z,54.40
2018-04-14T17:13:06.274Z,54.90
2018-04-14T17:15:40.880Z,55.30
2018-04-14T17:18:15.192Z,55.80
2018-04-14T17:20:49.565Z,55.20
2018-04-14T17:23:25.391Z,55.70
2018-04-14T17:25:59.848Z,55.70
2018-04-14T17:28:34.224Z,56.50
2018-04-14T17:31:09.264Z,57.10
2018-04-14T17:33:43.698Z,57.00
2018-04-14T17:36:18.220Z,57.40
2018-04-14T17:38:52.947Z,56.60
2018-04-14T17:41:27.476Z,56.70
2018-04-14T17:44:01.894Z,56.80
2018-04-14T17:46:36.204Z,57.00
2018-04-14T17:49:10.743Z,56.90
2018-04-14T17:51:46.056Z,58.20
2018-04-14T17:54:20.388Z,58.20
2018-04-14T17:56:54.937Z,58.20
2018-04-14T17:59:29.478Z,57.90
2018-04-14T18:02:03.968Z,57.60
2018-04-14T18:04:38.476Z,58.00
2018-04-14T18:07:12.772Z,58.40
2018-04-14T18:09:47.061Z,58.90
2018-04-14T18:12:22.134Z,60.00
2018-04-14T18:14:56.584Z,60.00
2018-04-14T18:17:31.106Z,59.90
2018-04-14T18:20:05.624Z,60.40
2018-04-14T18:22:39.888Z,60.90
2018-04-14T18:25:14.246Z,60.60
2018-04-14T18:27:48.788Z,60.00
2018-04-14T18:30:23.073Z,60.60
2018-04-14T18:32:58.248Z,60.20
2018-04-14T18:35:32.769Z,60.20
2018-04-14T18:38:07.165Z,60.00
2018-04-14T18:40:42.321Z,60.50
2018-04-14T18:43:16.740Z,60.40
2018-04-14T18:45:51.057Z,61.20
2018-04-14T18:48:26.406Z,62.50
2018-04-14T18:51:00.925Z,61.70
2018-04-14T18:53:35.313Z,62.00
2018-04-14T18:56:10.486Z,62.60
2018-04-14T18:58:45.589Z,63.50
2018-04-14T19:01:19.932Z,63.40
2018-04-14T19:03:54.358Z,64.20
2018-04-14T19:06:28.640Z,64.60
2018-04-14T19:09:03.028Z,63.90
2018-04-14T19:11:37.320Z,63.70
2018-04-14T19:14:11.596Z,64.50
2018-04-14T19:16:46.061Z,64.40
2018-04-14T19:19:20.373Z,65.40
2018-04-14T19:21:54.896Z,65.30
2018-04-14T19:24:30.036Z,65.00
2018-04-14T19:27:05.145Z,65.60
2018-04-14T19:29:39.599Z,65.60
2018-04-14T19:32:15.484Z,65.40
2018-04-14T19:34:49.976Z,65.30
2018-04-14T19:37:24.490Z,65.80
2018-04-14T19:39:58.915Z,65.90
2018-04-14T19:42:33.435Z,66.20
2018-04-14T19:45:07.761Z,66.60
2018-04-14T19:47:42.171Z,67.00
2018-04-14T19:50:16.596Z,67.40
2018-04-14T19:52:50.992Z,66.80
2018-04-14T19:55:25.372Z,66.80
2018-04-14T19:57:59.833Z,66.60
2018-04-14T20:00:34.262Z,66.50
2018-04-14T20:03:08.612Z,66.70
2018-04-14T20:05:43.108Z,66.80
2018-04-14T20:08:17.748Z,67.00
2018-04-14T20:10:52.048Z,66.30
2018-04-14T20:13:26.366Z,66.10
2018-04-14T20:16:00.991Z,66.90
2018-04-14T20:18:35.412Z,67.50
2018-04-14T20:21:10.057Z,67.90
2018-04-14T20:23:44.400Z,68.00
2018-04-14T20:26:18.880Z,68.40
2018-04-14T20:28:54.117Z,68.80
2018-04-14T20:31:28.572Z,68.70
2018-04-14T20:34:03.064Z,68.70
2018-04-14T20:36:37.504Z,68.80
2018-04-14T20:39:12.133Z,68.90
2018-04-14T20:41:46.640Z,68.70
2018-04-14T20:44:21.278Z,68.00
2018-04-14T20:46:55.908Z,68.40
2018-04-14T20:49:30.325Z,70.00
2018-04-14T20:52:04.655Z,70.20
2018-04-14T20:54:39.092Z,70.60
2018-04-14T20:57:13.580Z,70.40
2018-04-14T20:59:48.044Z,70.70
2018-04-14T21:02:22.510Z,70.30
2018-04-14T21:04:57.664Z,70.30
2018-04-14T21:07:32.052Z,70.30
2018-04-14T21:10:06.481Z,71.00
2018-04-14T21:12:40.909Z,71.50
2018-04-14T21:15:15.993Z,71.40
2018-04-14T21:17:50.589Z,71.80
2018-04-14T21:20:25.014Z,71.70
2018-04-14T21:22:59.343Z,71.10
2018-04-14T21:25:34.568Z,71.20
2018-04-14T21:28:08.969Z,71.80
2018-04-14T21:30:43.316Z,72.00
2018-04-14T21:33:17.824Z,72.30
2018-04-14T21:35:52.330Z,71.70
2018-04-14T21:38:26.883Z,71.80
2018-04-14T21:41:01.400Z,72.30
2018-04-14T21:43:36.024Z,72.50
2018-04-14T21:46:10.430Z,72.60
2018-04-14T21:48:44.964Z,73.00
2018-04-14T21:51:19.473Z,72.30
2018-04-14T21:53:53.805Z,73.10
2018-04-14T21:56:28.136Z,72.80
2018-04-14T21:59:02.860Z,73.10
2018-04-14T22:01:38.305Z,73.40
2018-04-14T22:04:12.721Z,73.10
2018-04-14T22:06:47.739Z,73.60
2018-04-14T22:09:23.101Z,74.60
2018-04-14T22:11:57.425Z,74.50
2018-04-14T22:14:32.635Z,74.20
2018-04-14T22:17:07.064Z,74.20
2018-04-14T22:19:41.500Z,73.90
2018-04-14T22:22:15.921Z,73.30
2018-04-14T22:24:50.244Z,73.70
2018-04-14T22:27:24.535Z,74.30
2018-04-14T22:29:58.836Z,73.70
2018-04-14T22:32:34.004Z,73.30
2018-04-14T22:35:08.536Z,73.30
2018-04-14T22:37:42.953Z,73.80
2018-04-14T22:40:17.243Z,73.70
2018-04-14T22:42:51.674Z,73.60
2018-04-14T22:45:26.325Z,73.60
2018-04-14T22:48:00.829Z,74.40
2018-04-14T22:50:35.268Z,73.70
2018-04-14T22:53:09.688Z,74.00
2018-04-14T22:55:44.081Z,74.70
2018-04-14T22:58:18.612Z,75.30
2018-04-14T23:00:53.059Z,76.40
2018-04-14T23:03:28.887Z,77.00
2018-04-14T23:06:04.128Z,76.90
2018-04-14T23:08:38.464Z,76.90
2018-04-14T23:11:12.787Z,77.40
2018-04-14T23:13:47.219Z,77.50
2018-04-14T23:16:22.340Z,77.70
2018-04-14T23:18:56.775Z,77.70
2018-04-14T23:21:31.217Z,77.80
2018-04-14T23:24:05.804Z,78.80
2018-04-14T23:26:40.328Z,77.70
2018-04-14T23:29:14.835Z,77.00
2018-04-14T23:31:49.149Z,77.20
2018-04-14T23:34:23.469Z,76.90
2018-04-14T23:36:58.507Z,76.70
2018-04-14T23:39:33.532Z,76.80
2018-04-14T23:42:08.084Z,76.70
2018-04-14T23:44:42.477Z,76.50
2018-04-14T23:47:17.020Z,76.40
2018-04-14T23:49:51.548Z,76.60
2018-04-14T23:52:26.053Z,76.50
2018-04-14T23:55:00.492Z,76.70
2018-04-14T23:57:35.013Z,76.60
